createdAt,value
2022-08-16T00:08:45.689Z,64.6
2022-08-16T00:23:55.832Z,64.5
2022-08-16T00:39:05.764Z,64.1
2022-08-16T00:54:24.654Z,64.1
2022-08-16T01:09:43.136Z,64.4
2022-08-16T01:24:56.602Z,64.6
2022-08-16T01:40:10.986Z,64.8
2022-08-16T01:55:22.384Z,64.8
2022-08-16T02:10:34.358Z,64.8
2022-08-16T02:26:00.117Z,64.9
2022-08-16T02:41:15.256Z,65
2022-08-16T02:56:35.285Z,65
2022-08-16T03:11:47.407Z,64.9
2022-08-16T03:26:59.290Z,64.8
2022-08-16T03:42:10.002Z,64.8
2022-08-16T03:57:24.229Z,64.8
2022-08-16T04:13:04.858Z,65.1
2022-08-16T04:29:25.240Z,64.9
2022-08-16T04:44:56.527Z,64.8
2022-08-16T05:00:36.361Z,64.7
2022-08-16T05:15:54.696Z,64.6
2022-08-16T05:31:07.184Z,64.4
2022-08-16T05:46:32.118Z,64.3
2022-08-16T06:01:41.908Z,64
2022-08-16T06:17:05.758Z,63.7
2022-08-16T06:32:42.896Z,63.4
2022-08-16T06:47:57.395Z,62.9
2022-08-16T07:03:57.684Z,62.5
2022-08-16T07:19:09.026Z,62.2
2022-08-16T07:34:49.061Z,62
2022-08-16T07:49:59.038Z,61.5
2022-08-16T08:05:08.389Z,61.3
2022-08-16T08:20:28.936Z,61.2
2022-08-16T08:35:38.804Z,61
2022-08-16T08:50:51.233Z,60.5
2022-08-16T09:06:01.062Z,60.1
2022-08-16T09:21:10.186Z,59.7
2022-08-16T09:36:34.654Z,59.3
2022-08-16T09:51:44.510Z,58.6
2022-08-16T10:22:13.346Z,57.8
2022-08-16T10:37:36.908Z,57.3
2022-08-16T10:52:59.788Z,57.1
2022-08-16T11:08:16.517Z,56.7
2022-08-16T11:23:28.320Z,56.3
2022-08-16T11:38:59.376Z,55.3
2022-08-16T11:54:37.386Z,54.7
2022-08-16T12:09:57.532Z,53.8
2022-08-16T12:25:18.572Z,50.7
2022-08-16T12:40:30.744Z,51.2
2022-08-16T12:55:49.921Z,52.4
2022-08-16T13:11:00.187Z,53
2022-08-16T13:26:09.173Z,53.1
2022-08-16T13:41:19.491Z,52.4
2022-08-16T13:56:40.720Z,51
2022-08-16T14:11:57.306Z,51.4
2022-08-16T14:27:09.500Z,48.8
2022-08-16T14:42:21.335Z,48.9
2022-08-16T14:57:32.528Z,46.7
2022-08-16T15:12:45.832Z,45.6
2022-08-16T15:27:57.421Z,46.1
2022-08-16T15:43:07.465Z,47.5
2022-08-16T15:58:39.149Z,47.7
2022-08-16T16:13:52.222Z,48
2022-08-16T16:29:16.161Z,48.5
2022-08-16T16:44:52.156Z,48.5
2022-08-16T17:00:42.903Z,48.6
2022-08-16T17:16:02.629Z,48.8
2022-08-16T17:31:43.397Z,49
2022-08-16T17:46:53.551Z,49.1
2022-08-16T18:02:45.336Z,49.3
2022-08-16T18:17:55.206Z,49.6
2022-08-16T18:33:04.188Z,49.8
2022-08-16T18:48:13.615Z,50.1
2022-08-16T19:03:58.157Z,49.7
2022-08-16T19:19:09.450Z,50.4
2022-08-16T19:34:18.628Z,50.6
2022-08-16T19:49:27.753Z,50.6
2022-08-16T20:04:36.433Z,51.1
2022-08-16T20:19:46.102Z,51.8
2022-08-16T20:34:57.643Z,51.8
2022-08-16T20:50:06.885Z,52.1
2022-08-16T21:05:16.292Z,52.4
2022-08-16T21:20:25.807Z,52.7
2022-08-16T21:35:35.105Z,53
2022-08-16T21:50:44.627Z,53.2
2022-08-16T22:06:15.086Z,53.4
2022-08-16T22:21:24.490Z,53.7
2022-08-16T22:36:33.889Z,54.1
2022-08-16T22:51:43.293Z,54.7
2022-08-16T23:06:52.862Z,54.3
2022-08-16T23:22:04.230Z,54.8
2022-08-16T23:37:20.942Z,55.5
2022-08-16T23:52:56.393Z,55.4
